Westview Chinook — VG3278 — position and weather

sailwx.info

Track history (hours):
 
Tides and Currents Weather Stations Pressure Air Temp Water Temp Dewpoint Dewpoint Depression Visibility Wind Speed Wind Dir Waves Ship Positions

Westview Chinook

Last reported at 2016-May-04 16:33 UTC. Time now 2016-May-04 17:19 UTC.
Position N 49°13' W 123°12'.

Length 15 m.

Type: Tug. MMSI: 316005622.

Date/timePositionNaut miles runAvg speedWind from/ knotsBaromVisibWave heightAir tempDewpointWater temp
2016-May-04 16:33N 49°13' W 123°12'3 2.7
2016-May-04 15:33N 49°12' W 123°08'2 2.2
2016-May-04 14:33N 49°12' W 123°05'2 2.2
2016-May-04 13:33N 49°12' W 123°08'0 0.0
2016-May-04 12:33N 49°12' W 123°08'1 0.9
2016-May-04 11:33N 49°12' W 123°09'2 2.2
2016-May-04 10:33N 49°12' W 123°06'2 2.0
2016-May-04 09:33N 49°12' W 123°09'3 3.2
2016-May-04 08:33N 49°12' W 123°04'3 3.1
2016-May-04 07:33N 49°12' W 123°09'5 4.7
2016-May-04 06:33N 49°15' W 123°15'4 3.9
2016-May-04 05:33N 49°11' W 123°18'5 4.6
2016-May-04 04:33N 49°07' W 123°17'8 8.2
2016-May-04 03:33N 49°07' W 123°04'8 8.0
2016-May-04 02:33N 49°12' W 122°54'7 7.3
2016-May-04 01:33N 49°13' W 122°43'2 2.4
2016-May-04 00:33N 49°14' W 122°46'3 2.8
2016-May-03 23:33N 49°13' W 122°50'2 2.5
2016-May-03 22:33N 49°13' W 122°54'1 1.3
2016-May-03 21:33N 49°12' W 122°55'5 5.0
2016-May-03 20:33N 49°12' W 123°03'2 1.6
2016-May-03 19:33N 49°12' W 123°05'0 0.0
2016-May-03 18:33N 49°12' W 123°05'0 0.0
2016-May-03 17:33N 49°12' W 123°05'0 0.0
2016-May-03 16:33N 49°12' W 123°05'0 0.0
2016-May-03 15:33N 49°12' W 123°05'3 2.9
2016-May-03 14:33N 49°12' W 123°00'9 8.7
2016-May-03 13:33N 49°13' W 122°47'1 1.1
2016-May-03 12:32N 49°14' W 122°46'3 3.3
2016-May-03 11:33N 49°13' W 122°51'7 7.3
2016-May-03 10:33N 49°09' W 123°00'4 4.0
2016-May-03 09:33N 49°07' W 123°05'5 5.5
2016-May-03 08:33N 49°09' W 122°58'5 5.2
2016-May-03 07:33N 49°13' W 122°53'2 1.7
2016-May-03 06:33N 49°13' W 122°50'0 0.2
2016-May-03 05:33N 49°13' W 122°50'2 2.0
2016-May-03 04:33N 49°13' W 122°53'5 5.1
2016-May-03 03:33N 49°09' W 122°58'5 5.1
2016-May-03 02:33N 49°07' W 123°05'7 6.7
2016-May-03 01:33N 49°10' W 122°56'4 3.6
2016-May-03 00:33N 49°13' W 122°53'4 3.9
2016-May-02 23:33N 49°11' W 122°58'3 3.2
2016-May-02 22:33N 49°12' W 123°02'4 4.4
2016-May-02 21:33N 49°12' W 123°09'5 4.6
2016-May-02 20:33N 49°15' W 123°15'2 2.3
2016-May-02 19:33N 49°13' W 123°12'6 5.5
2016-May-02 18:33N 49°12' W 123°04'2 1.6
2016-May-02 17:33N 49°12' W 123°06'0 0.4
2016-May-02 16:33N 49°12' W 123°06'2 1.5
2016-May-02 15:33N 49°12' W 123°08'7 7.3
2016-May-02 14:33N 49°12' W 122°57'2 2.2
2016-May-02 13:33N 49°09' W 122°57'3 3.4
2016-May-02 12:33N 49°09' W 123°02'5 4.6
2016-May-02 11:33N 49°06' W 123°08'4 4.5
2016-May-02 10:33N 49°08' W 123°15'5 5.4
2016-May-02 09:33N 49°05' W 123°22'6 6.5
2016-May-02 08:33N 49°02' W 123°31'4 4.3
2016-May-02 07:32N 48°59' W 123°36'3 2.9
2016-May-02 06:33N 48°56' W 123°37'4 3.9
2016-May-02 05:33N 48°52' W 123°38'0 0.2
2016-May-02 04:33N 48°53' W 123°38'0 0.0
2016-May-02 03:33N 48°53' W 123°38'1 0.8
2016-May-02 02:33N 48°53' W 123°37'5 5.1
2016-May-02 01:33N 48°58' W 123°37'5 5.4
2016-May-02 00:33N 49°02' W 123°32'3 3.4
2016-May-01 23:33N 49°04' W 123°27'4 4.1
2016-May-01 22:33N 49°05' W 123°22'7 7.3
2016-May-01 21:33N 49°07' W 123°11'7 7.2
2016-May-01 20:33N 49°09' W 123°00'1 1.4
2016-May-01 19:33N 49°09' W 122°58'1 0.6
2016-May-01 18:33N 49°09' W 122°57'0 0.0
2016-May-01 17:34N 49°09' W 122°57'2 2.4
2016-May-01 16:33N 49°11' W 122°60'1 0.8
2016-May-01 15:33N 49°11' W 122°59'8 8.0
2016-May-01 14:33N 49°13' W 122°47'1 1.1
2016-May-01 13:33N 49°14' W 122°46'0 0.0
2016-May-01 12:33N 49°14' W 122°46'0 0.0
2016-May-01 11:33N 49°14' W 122°46'0 0.0
2016-May-01 10:33N 49°14' W 122°46'0 0.2
2016-May-01 09:33N 49°14' W 122°46'6 6.0
2016-May-01 08:33N 49°12' W 122°55'7 7.3
2016-May-01 07:33N 49°12' W 123°06'0 0.4
2016-May-01 06:33N 49°12' W 123°07'1 0.8
2016-May-01 05:33N 49°12' W 123°06'0 0.3
2016-May-01 04:33N 49°12' W 123°06'6 5.7
2016-May-01 03:33N 49°14' W 123°14'3 3.3
2016-May-01 02:33N 49°13' W 123°10'8 8.4
2016-May-01 01:33N 49°12' W 122°57'7 7.4
2016-May-01 00:33N 49°14' W 122°46'0 0.0
2016-Apr-30 23:33N 49°14' W 122°46'0 0.0
2016-Apr-30 22:33N 49°14' W 122°46'0 0.0
2016-Apr-30 21:33N 49°14' W 122°46'0 0.0
2016-Apr-30 20:33N 49°14' W 122°46'0 0.0
2016-Apr-30 19:33N 49°14' W 122°46'0 0.0
2016-Apr-30 18:33N 49°14' W 122°46'0 0.0
2016-Apr-30 17:33N 49°14' W 122°46'0 0.0
2016-Apr-30 16:33N 49°14' W 122°46'0 0.0
2016-Apr-30 15:33N 49°14' W 122°46'0 0.0
2016-Apr-30 14:33N 49°14' W 122°46'0 0.0
2016-Apr-30 13:33N 49°14' W 122°46'0 0.0
2016-Apr-30 12:33N 49°14' W 122°46'0 0.0
2016-Apr-30 11:33N 49°14' W 122°46'0 0.0
2016-Apr-30 10:33N 49°14' W 122°46'0 0.0
2016-Apr-30 09:33N 49°14' W 122°46'0 0.0
2016-Apr-30 08:33N 49°14' W 122°46'0 0.0
2016-Apr-30 07:33N 49°14' W 122°46'0 0.0
2016-Apr-30 06:33N 49°14' W 122°46'0 0.0
2016-Apr-30 05:33N 49°14' W 122°46'0 0.0
2016-Apr-30 04:33N 49°14' W 122°46'3 3.1
2016-Apr-30 03:33N 49°13' W 122°50'6 6.1
2016-Apr-30 02:33N 49°11' W 122°59'4 3.8
2016-Apr-30 01:33N 49°12' W 123°05'8 7.8
2016-Apr-30 00:33N 49°13' W 122°53'3 3.4
2016-Apr-29 23:33N 49°13' W 122°48'5 4.9
2016-Apr-29 22:33N 49°12' W 122°55'3 3.1
2016-Apr-29 21:33N 49°09' W 122°58'4 3.6
2016-Apr-29 20:33N 49°08' W 123°03'5 4.5
2016-Apr-29 19:33N 49°07' W 123°10'5 4.6
2016-Apr-29 18:33N 49°07' W 123°17'6 5.7
2016-Apr-29 17:33N 49°06' W 123°25'6 5.9
2016-Apr-29 16:33N 49°03' W 123°33'6 6.3
2016-Apr-29 15:33N 48°57' W 123°37'4 4.4
2016-Apr-29 14:33N 48°52' W 123°38'0 0.1
2016-Apr-29 13:33N 48°52' W 123°38'4 4.2
2016-Apr-29 12:33N 48°57' W 123°37'5 5.3
2016-Apr-29 11:33N 49°02' W 123°35'2 2.0
2016-Apr-29 10:33N 49°03' W 123°33'1 1.2
2016-Apr-29 09:33N 49°03' W 123°31'1 1.3
2016-Apr-29 08:33N 49°03' W 123°33'2 1.9
2016-Apr-29 07:33N 49°04' W 123°30'2 1.6
2016-Apr-29 06:33N 49°04' W 123°28'2 1.5
2016-Apr-29 05:33N 49°05' W 123°25'5 5.1
2016-Apr-29 04:33N 49°06' W 123°18'5 5.4
2016-Apr-29 03:33N 49°07' W 123°10'7 6.7
2016-Apr-29 02:33N 49°09' W 123°00'0 0.1
2016-Apr-29 01:33N 49°09' W 123°00'2 2.4
2016-Apr-29 00:33N 49°08' W 123°03'6 6.3
2016-Apr-28 23:33N 49°08' W 123°13'6 6.5
2016-Apr-28 22:33N 49°08' W 123°23'10 9.8
2016-Apr-28 21:33N 49°14' W 123°35'10 9.8
2016-Apr-28 20:33N 49°20' W 123°46'10 9.9
2016-Apr-28 19:33N 49°27' W 123°58'3 3.4
2016-Apr-28 18:33N 49°26' W 123°53'7 7.3
2016-Apr-28 17:34N 49°23' W 123°42'8 7.6
2016-Apr-28 16:33N 49°21' W 123°31'8 7.8
2016-Apr-28 15:34N 49°19' W 123°19'7 6.8
2016-Apr-28 14:33N 49°19' W 123°09'4 4.3
2016-Apr-28 13:33N 49°18' W 123°03'1 0.6
2016-Apr-28 12:33N 49°18' W 123°02'0 0.0
2016-Apr-28 11:33N 49°18' W 123°02'0 0.0
2016-Apr-28 10:33N 49°18' W 123°02'3 3.5
2016-Apr-28 09:33N 49°18' W 123°07'5 5.5
2016-Apr-28 08:33N 49°17' W 123°15'7 7.4
2016-Apr-28 07:33N 49°12' W 123°08'0 0.5
2016-Apr-28 06:33N 49°12' W 123°07'2 1.7
2016-Apr-28 05:33N 49°12' W 123°09'0 0.0
2016-Apr-28 04:33N 49°12' W 123°09'3 3.3
2016-Apr-28 03:33N 49°12' W 123°04'1 0.6
2016-Apr-28 02:33N 49°12' W 123°05'8 8.0
2016-Apr-28 01:33N 49°13' W 122°53'5 4.8
2016-Apr-28 00:33N 49°14' W 122°46'0 0.0
2016-Apr-27 23:33N 49°14' W 122°46'0 0.0
2016-Apr-27 22:33N 49°14' W 122°46'0 0.0
2016-Apr-27 21:33N 49°14' W 122°46'0 0.0
2016-Apr-27 20:33N 49°14' W 122°46'0 0.0
2016-Apr-27 19:33N 49°14' W 122°46'0 0.0
2016-Apr-27 18:33N 49°14' W 122°46'0 0.0
2016-Apr-27 17:33N 49°14' W 122°46'0 0.0
2016-Apr-27 16:33N 49°14' W 122°46'0 0.0
2016-Apr-27 15:33N 49°14' W 122°46'0 0.0
2016-Apr-27 14:33N 49°14' W 122°46'0 0.0
2016-Apr-27 13:33N 49°14' W 122°46'0 0.0
2016-Apr-27 12:33N 49°14' W 122°46'0 0.0
2016-Apr-27 11:33N 49°14' W 122°46'0 0.0
2016-Apr-27 10:33N 49°14' W 122°46'0 0.0
2016-Apr-27 09:33N 49°14' W 122°46'0 0.0
2016-Apr-27 08:33N 49°14' W 122°46'6 5.9
2016-Apr-27 07:33N 49°19' W 122°41'2 1.7
2016-Apr-27 06:33N 49°17' W 122°41'5 4.7
2016-Apr-27 05:33N 49°14' W 122°46'5 4.7
2016-Apr-27 04:33N 49°13' W 122°53'1 0.9
2016-Apr-27 03:34N 49°12' W 122°54'1 0.7
2016-Apr-27 02:33N 49°12' W 122°55'5 4.8
2016-Apr-27 01:33N 49°12' W 123°03'0 0.0
2016-Apr-27 00:33N 49°12' W 123°03'7 7.2
2016-Apr-26 23:33N 49°14' W 123°14'3 3.0
2016-Apr-26 22:33N 49°15' W 123°17'4 3.7
2016-Apr-26 21:33N 49°13' W 123°13'5 5.0
2016-Apr-26 20:33N 49°12' W 123°05'5 4.8
2016-Apr-26 19:33N 49°13' W 123°12'4 3.6
2016-Apr-26 18:33N 49°13' W 123°18'7 7.1
2016-Apr-26 17:33N 49°06' W 123°18'9 9.4
2016-Apr-26 16:33N 49°08' W 123°04'7 7.0
2016-Apr-26 15:33N 49°12' W 122°55'7 6.6
2016-Apr-26 14:33N 49°12' W 123°05'1 0.6
2016-Apr-26 13:33N 49°12' W 123°04'1 0.9
2016-Apr-26 12:33N 49°12' W 123°03'1 0.9
2016-Apr-26 11:33N 49°12' W 123°04'2 1.6
2016-Apr-26 10:33N 49°12' W 123°07'4 3.7
2016-Apr-26 09:33N 49°13' W 123°12'4 4.0
2016-Apr-26 08:33N 49°15' W 123°18'7 6.8
2016-Apr-26 07:33N 49°08' W 123°19'4 4.4
2016-Apr-26 06:33N 49°07' W 123°12'7 6.6
2016-Apr-26 05:34N 49°09' W 123°02'6 6.3
2016-Apr-26 04:33N 49°12' W 122°54'7 7.1
2016-Apr-26 03:33N 49°13' W 122°43'1 1.4
2016-Apr-26 02:33N 49°13' W 122°45'1 1.0
2016-Apr-26 01:33N 49°14' W 122°46'0 0.0
2016-Apr-26 00:33N 49°14' W 122°46'0 0.0
2016-Apr-25 23:33N 49°14' W 122°46'0 0.0
2016-Apr-25 22:33N 49°14' W 122°46'0 0.0
2016-Apr-25 21:33N 49°14' W 122°46'0 0.0
2016-Apr-25 20:33N 49°14' W 122°46'0 0.0
2016-Apr-25 19:33N 49°14' W 122°46'0 0.0
2016-Apr-25 18:33N 49°14' W 122°46'0 0.0
2016-Apr-25 17:33N 49°14' W 122°46'0 0.0
2016-Apr-25 16:33N 49°14' W 122°46'0 0.0
2016-Apr-25 15:33N 49°14' W 122°46'0 0.0
2016-Apr-25 14:33N 49°14' W 122°46'0 0.0
2016-Apr-25 13:33N 49°14' W 122°46'0 0.0
2016-Apr-25 12:33N 49°14' W 122°46'0 0.0
2016-Apr-25 11:33N 49°14' W 122°46'0 0.0
2016-Apr-25 10:33N 49°14' W 122°46'0 0.0
2016-Apr-25 09:33N 49°14' W 122°46'0 0.0
2016-Apr-25 08:33N 49°14' W 122°46'0 0.0
2016-Apr-25 07:33N 49°14' W 122°46'6 6.0
2016-Apr-25 06:33N 49°12' W 122°55'7 6.6
2016-Apr-25 05:33N 49°12' W 123°05'7 7.5
2016-Apr-25 04:33N 49°15' W 123°15'3 2.8
2016-Apr-25 03:33N 49°13' W 123°12'4 4.4
2016-Apr-25 02:33N 49°12' W 123°05'1 1.4
2016-Apr-25 01:33N 49°12' W 123°03'0 0.4
2016-Apr-25 00:33N 49°12' W 123°03'0 0.0
2016-Apr-24 23:33N 49°12' W 123°03'0 0.0
2016-Apr-24 22:34N 49°12' W 123°03'0 0.0
2016-Apr-24 21:33N 49°12' W 123°03'0 0.0
2016-Apr-24 20:33N 49°12' W 123°03'0 0.0
2016-Apr-24 19:33N 49°12' W 123°03'0 0.0
2016-Apr-24 18:33N 49°12' W 123°03'0 0.0
2016-Apr-24 17:33N 49°12' W 123°03'  
Track history (hours):
 
Tides and Currents Weather Stations Pressure Air Temp Water Temp Dewpoint Dewpoint Depression Visibility Wind Speed Wind Dir Waves Ship Positions

Westview Chinook

Last reported at 2016-May-04 16:33 UTC. Time now 2016-May-04 17:19 UTC.
Position N 49°13' W 123°12'.

Length 15 m.

Type: Tug. MMSI: 316005622.

Date/timePositionNaut miles runAvg speedWind from/ knotsBaromVisibWave heightAir tempDewpointWater temp
2016-May-04 16:33N 49°13' W 123°12'3 2.7
2016-May-04 15:33N 49°12' W 123°08'2 2.2
2016-May-04 14:33N 49°12' W 123°05'2 2.2
2016-May-04 13:33N 49°12' W 123°08'0 0.0
2016-May-04 12:33N 49°12' W 123°08'1 0.9
2016-May-04 11:33N 49°12' W 123°09'2 2.2
2016-May-04 10:33N 49°12' W 123°06'2 2.0
2016-May-04 09:33N 49°12' W 123°09'3 3.2
2016-May-04 08:33N 49°12' W 123°04'3 3.1
2016-May-04 07:33N 49°12' W 123°09'5 4.7
2016-May-04 06:33N 49°15' W 123°15'4 3.9
2016-May-04 05:33N 49°11' W 123°18'5 4.6
2016-May-04 04:33N 49°07' W 123°17'8 8.2
2016-May-04 03:33N 49°07' W 123°04'8 8.0
2016-May-04 02:33N 49°12' W 122°54'7 7.3
2016-May-04 01:33N 49°13' W 122°43'2 2.4
2016-May-04 00:33N 49°14' W 122°46'3 2.8
2016-May-03 23:33N 49°13' W 122°50'2 2.5
2016-May-03 22:33N 49°13' W 122°54'1 1.3
2016-May-03 21:33N 49°12' W 122°55'5 5.0
2016-May-03 20:33N 49°12' W 123°03'2 1.6
2016-May-03 19:33N 49°12' W 123°05'0 0.0
2016-May-03 18:33N 49°12' W 123°05'0 0.0
2016-May-03 17:33N 49°12' W 123°05'0 0.0
2016-May-03 16:33N 49°12' W 123°05'0 0.0
2016-May-03 15:33N 49°12' W 123°05'3 2.9
2016-May-03 14:33N 49°12' W 123°00'9 8.7
2016-May-03 13:33N 49°13' W 122°47'1 1.1
2016-May-03 12:32N 49°14' W 122°46'3 3.3
2016-May-03 11:33N 49°13' W 122°51'7 7.3
2016-May-03 10:33N 49°09' W 123°00'4 4.0
2016-May-03 09:33N 49°07' W 123°05'5 5.5
2016-May-03 08:33N 49°09' W 122°58'5 5.2
2016-May-03 07:33N 49°13' W 122°53'2 1.7
2016-May-03 06:33N 49°13' W 122°50'0 0.2
2016-May-03 05:33N 49°13' W 122°50'2 2.0
2016-May-03 04:33N 49°13' W 122°53'5 5.1
2016-May-03 03:33N 49°09' W 122°58'5 5.1
2016-May-03 02:33N 49°07' W 123°05'7 6.7
2016-May-03 01:33N 49°10' W 122°56'4 3.6
2016-May-03 00:33N 49°13' W 122°53'4 3.9
2016-May-02 23:33N 49°11' W 122°58'3 3.2
2016-May-02 22:33N 49°12' W 123°02'4 4.4
2016-May-02 21:33N 49°12' W 123°09'5 4.6
2016-May-02 20:33N 49°15' W 123°15'2 2.3
2016-May-02 19:33N 49°13' W 123°12'6 5.5
2016-May-02 18:33N 49°12' W 123°04'2 1.6
2016-May-02 17:33N 49°12' W 123°06'0 0.4
2016-May-02 16:33N 49°12' W 123°06'2 1.5
2016-May-02 15:33N 49°12' W 123°08'7 7.3
2016-May-02 14:33N 49°12' W 122°57'2 2.2
2016-May-02 13:33N 49°09' W 122°57'3 3.4
2016-May-02 12:33N 49°09' W 123°02'5 4.6
2016-May-02 11:33N 49°06' W 123°08'4 4.5
2016-May-02 10:33N 49°08' W 123°15'5 5.4
2016-May-02 09:33N 49°05' W 123°22'6 6.5
2016-May-02 08:33N 49°02' W 123°31'4 4.3
2016-May-02 07:32N 48°59' W 123°36'3 2.9
2016-May-02 06:33N 48°56' W 123°37'4 3.9
2016-May-02 05:33N 48°52' W 123°38'0 0.2
2016-May-02 04:33N 48°53' W 123°38'0 0.0
2016-May-02 03:33N 48°53' W 123°38'1 0.8
2016-May-02 02:33N 48°53' W 123°37'5 5.1
2016-May-02 01:33N 48°58' W 123°37'5 5.4
2016-May-02 00:33N 49°02' W 123°32'3 3.4
2016-May-01 23:33N 49°04' W 123°27'4 4.1
2016-May-01 22:33N 49°05' W 123°22'7 7.3
2016-May-01 21:33N 49°07' W 123°11'7 7.2
2016-May-01 20:33N 49°09' W 123°00'1 1.4
2016-May-01 19:33N 49°09' W 122°58'1 0.6
2016-May-01 18:33N 49°09' W 122°57'0 0.0
2016-May-01 17:34N 49°09' W 122°57'2 2.4
2016-May-01 16:33N 49°11' W 122°60'1 0.8
2016-May-01 15:33N 49°11' W 122°59'8 8.0
2016-May-01 14:33N 49°13' W 122°47'1 1.1
2016-May-01 13:33N 49°14' W 122°46'0 0.0
2016-May-01 12:33N 49°14' W 122°46'0 0.0
2016-May-01 11:33N 49°14' W 122°46'0 0.0
2016-May-01 10:33N 49°14' W 122°46'0 0.2
2016-May-01 09:33N 49°14' W 122°46'6 6.0
2016-May-01 08:33N 49°12' W 122°55'7 7.3
2016-May-01 07:33N 49°12' W 123°06'0 0.4
2016-May-01 06:33N 49°12' W 123°07'1 0.8
2016-May-01 05:33N 49°12' W 123°06'0 0.3
2016-May-01 04:33N 49°12' W 123°06'6 5.7
2016-May-01 03:33N 49°14' W 123°14'3 3.3
2016-May-01 02:33N 49°13' W 123°10'8 8.4
2016-May-01 01:33N 49°12' W 122°57'7 7.4
2016-May-01 00:33N 49°14' W 122°46'0 0.0
2016-Apr-30 23:33N 49°14' W 122°46'0 0.0
2016-Apr-30 22:33N 49°14' W 122°46'0 0.0
2016-Apr-30 21:33N 49°14' W 122°46'0 0.0
2016-Apr-30 20:33N 49°14' W 122°46'0 0.0
2016-Apr-30 19:33N 49°14' W 122°46'0 0.0
2016-Apr-30 18:33N 49°14' W 122°46'0 0.0
2016-Apr-30 17:33N 49°14' W 122°46'0 0.0
2016-Apr-30 16:33N 49°14' W 122°46'0 0.0
2016-Apr-30 15:33N 49°14' W 122°46'0 0.0
2016-Apr-30 14:33N 49°14' W 122°46'0 0.0
2016-Apr-30 13:33N 49°14' W 122°46'0 0.0
2016-Apr-30 12:33N 49°14' W 122°46'0 0.0
2016-Apr-30 11:33N 49°14' W 122°46'0 0.0
2016-Apr-30 10:33N 49°14' W 122°46'0 0.0
2016-Apr-30 09:33N 49°14' W 122°46'0 0.0
2016-Apr-30 08:33N 49°14' W 122°46'0 0.0
2016-Apr-30 07:33N 49°14' W 122°46'0 0.0
2016-Apr-30 06:33N 49°14' W 122°46'0 0.0
2016-Apr-30 05:33N 49°14' W 122°46'0 0.0
2016-Apr-30 04:33N 49°14' W 122°46'3 3.1
2016-Apr-30 03:33N 49°13' W 122°50'6 6.1
2016-Apr-30 02:33N 49°11' W 122°59'4 3.8
2016-Apr-30 01:33N 49°12' W 123°05'8 7.8
2016-Apr-30 00:33N 49°13' W 122°53'3 3.4
2016-Apr-29 23:33N 49°13' W 122°48'5 4.9
2016-Apr-29 22:33N 49°12' W 122°55'3 3.1
2016-Apr-29 21:33N 49°09' W 122°58'4 3.6
2016-Apr-29 20:33N 49°08' W 123°03'5 4.5
2016-Apr-29 19:33N 49°07' W 123°10'5 4.6
2016-Apr-29 18:33N 49°07' W 123°17'6 5.7
2016-Apr-29 17:33N 49°06' W 123°25'6 5.9
2016-Apr-29 16:33N 49°03' W 123°33'6 6.3
2016-Apr-29 15:33N 48°57' W 123°37'4 4.4
2016-Apr-29 14:33N 48°52' W 123°38'0 0.1
2016-Apr-29 13:33N 48°52' W 123°38'4 4.2
2016-Apr-29 12:33N 48°57' W 123°37'5 5.3
2016-Apr-29 11:33N 49°02' W 123°35'2 2.0
2016-Apr-29 10:33N 49°03' W 123°33'1 1.2
2016-Apr-29 09:33N 49°03' W 123°31'1 1.3
2016-Apr-29 08:33N 49°03' W 123°33'2 1.9
2016-Apr-29 07:33N 49°04' W 123°30'2 1.6
2016-Apr-29 06:33N 49°04' W 123°28'2 1.5
2016-Apr-29 05:33N 49°05' W 123°25'5 5.1
2016-Apr-29 04:33N 49°06' W 123°18'5 5.4
2016-Apr-29 03:33N 49°07' W 123°10'7 6.7
2016-Apr-29 02:33N 49°09' W 123°00'0 0.1
2016-Apr-29 01:33N 49°09' W 123°00'2 2.4
2016-Apr-29 00:33N 49°08' W 123°03'6 6.3
2016-Apr-28 23:33N 49°08' W 123°13'6 6.5
2016-Apr-28 22:33N 49°08' W 123°23'10 9.8
2016-Apr-28 21:33N 49°14' W 123°35'10 9.8
2016-Apr-28 20:33N 49°20' W 123°46'10 9.9
2016-Apr-28 19:33N 49°27' W 123°58'3 3.4
2016-Apr-28 18:33N 49°26' W 123°53'7 7.3
2016-Apr-28 17:34N 49°23' W 123°42'8 7.6
2016-Apr-28 16:33N 49°21' W 123°31'8 7.8
2016-Apr-28 15:34N 49°19' W 123°19'7 6.8
2016-Apr-28 14:33N 49°19' W 123°09'4 4.3
2016-Apr-28 13:33N 49°18' W 123°03'1 0.6
2016-Apr-28 12:33N 49°18' W 123°02'0 0.0
2016-Apr-28 11:33N 49°18' W 123°02'0 0.0
2016-Apr-28 10:33N 49°18' W 123°02'3 3.5
2016-Apr-28 09:33N 49°18' W 123°07'5 5.5
2016-Apr-28 08:33N 49°17' W 123°15'7 7.4
2016-Apr-28 07:33N 49°12' W 123°08'0 0.5
2016-Apr-28 06:33N 49°12' W 123°07'2 1.7
2016-Apr-28 05:33N 49°12' W 123°09'0 0.0
2016-Apr-28 04:33N 49°12' W 123°09'3 3.3
2016-Apr-28 03:33N 49°12' W 123°04'1 0.6
2016-Apr-28 02:33N 49°12' W 123°05'8 8.0
2016-Apr-28 01:33N 49°13' W 122°53'5 4.8
2016-Apr-28 00:33N 49°14' W 122°46'0 0.0
2016-Apr-27 23:33N 49°14' W 122°46'0 0.0
2016-Apr-27 22:33N 49°14' W 122°46'0 0.0
2016-Apr-27 21:33N 49°14' W 122°46'0 0.0
2016-Apr-27 20:33N 49°14' W 122°46'0 0.0
2016-Apr-27 19:33N 49°14' W 122°46'0 0.0
2016-Apr-27 18:33N 49°14' W 122°46'0 0.0
2016-Apr-27 17:33N 49°14' W 122°46'0 0.0
2016-Apr-27 16:33N 49°14' W 122°46'0 0.0
2016-Apr-27 15:33N 49°14' W 122°46'0 0.0
2016-Apr-27 14:33N 49°14' W 122°46'0 0.0
2016-Apr-27 13:33N 49°14' W 122°46'0 0.0
2016-Apr-27 12:33N 49°14' W 122°46'0 0.0
2016-Apr-27 11:33N 49°14' W 122°46'0 0.0
2016-Apr-27 10:33N 49°14' W 122°46'0 0.0
2016-Apr-27 09:33N 49°14' W 122°46'0 0.0
2016-Apr-27 08:33N 49°14' W 122°46'6 5.9
2016-Apr-27 07:33N 49°19' W 122°41'2 1.7
2016-Apr-27 06:33N 49°17' W 122°41'5 4.7
2016-Apr-27 05:33N 49°14' W 122°46'5 4.7
2016-Apr-27 04:33N 49°13' W 122°53'1 0.9
2016-Apr-27 03:34N 49°12' W 122°54'1 0.7
2016-Apr-27 02:33N 49°12' W 122°55'5 4.8
2016-Apr-27 01:33N 49°12' W 123°03'0 0.0
2016-Apr-27 00:33N 49°12' W 123°03'7 7.2
2016-Apr-26 23:33N 49°14' W 123°14'3 3.0
2016-Apr-26 22:33N 49°15' W 123°17'4 3.7
2016-Apr-26 21:33N 49°13' W 123°13'5 5.0
2016-Apr-26 20:33N 49°12' W 123°05'5 4.8
2016-Apr-26 19:33N 49°13' W 123°12'4 3.6
2016-Apr-26 18:33N 49°13' W 123°18'7 7.1
2016-Apr-26 17:33N 49°06' W 123°18'9 9.4
2016-Apr-26 16:33N 49°08' W 123°04'7 7.0
2016-Apr-26 15:33N 49°12' W 122°55'7 6.6
2016-Apr-26 14:33N 49°12' W 123°05'1 0.6
2016-Apr-26 13:33N 49°12' W 123°04'1 0.9
2016-Apr-26 12:33N 49°12' W 123°03'1 0.9
2016-Apr-26 11:33N 49°12' W 123°04'2 1.6
2016-Apr-26 10:33N 49°12' W 123°07'4 3.7
2016-Apr-26 09:33N 49°13' W 123°12'4 4.0
2016-Apr-26 08:33N 49°15' W 123°18'7 6.8
2016-Apr-26 07:33N 49°08' W 123°19'4 4.4
2016-Apr-26 06:33N 49°07' W 123°12'7 6.6
2016-Apr-26 05:34N 49°09' W 123°02'6 6.3
2016-Apr-26 04:33N 49°12' W 122°54'7 7.1
2016-Apr-26 03:33N 49°13' W 122°43'1 1.4
2016-Apr-26 02:33N 49°13' W 122°45'1 1.0
2016-Apr-26 01:33N 49°14' W 122°46'0 0.0
2016-Apr-26 00:33N 49°14' W 122°46'0 0.0
2016-Apr-25 23:33N 49°14' W 122°46'0 0.0
2016-Apr-25 22:33N 49°14' W 122°46'0 0.0
2016-Apr-25 21:33N 49°14' W 122°46'0 0.0
2016-Apr-25 20:33N 49°14' W 122°46'0 0.0
2016-Apr-25 19:33N 49°14' W 122°46'0 0.0
2016-Apr-25 18:33N 49°14' W 122°46'0 0.0
2016-Apr-25 17:33N 49°14' W 122°46'0 0.0
2016-Apr-25 16:33N 49°14' W 122°46'0 0.0
2016-Apr-25 15:33N 49°14' W 122°46'0 0.0
2016-Apr-25 14:33N 49°14' W 122°46'0 0.0
2016-Apr-25 13:33N 49°14' W 122°46'0 0.0
2016-Apr-25 12:33N 49°14' W 122°46'0 0.0
2016-Apr-25 11:33N 49°14' W 122°46'0 0.0
2016-Apr-25 10:33N 49°14' W 122°46'0 0.0
2016-Apr-25 09:33N 49°14' W 122°46'0 0.0
2016-Apr-25 08:33N 49°14' W 122°46'0 0.0
2016-Apr-25 07:33N 49°14' W 122°46'6 6.0
2016-Apr-25 06:33N 49°12' W 122°55'7 6.6
2016-Apr-25 05:33N 49°12' W 123°05'7 7.5
2016-Apr-25 04:33N 49°15' W 123°15'3 2.8
2016-Apr-25 03:33N 49°13' W 123°12'4 4.4
2016-Apr-25 02:33N 49°12' W 123°05'1 1.4
2016-Apr-25 01:33N 49°12' W 123°03'0 0.4
2016-Apr-25 00:33N 49°12' W 123°03'0 0.0
2016-Apr-24 23:33N 49°12' W 123°03'0 0.0
2016-Apr-24 22:34N 49°12' W 123°03'0 0.0
2016-Apr-24 21:33N 49°12' W 123°03'0 0.0
2016-Apr-24 20:33N 49°12' W 123°03'0 0.0
2016-Apr-24 19:33N 49°12' W 123°03'0 0.0
2016-Apr-24 18:33N 49°12' W 123°03'0 0.0
2016-Apr-24 17:33N 49°12' W 123°03'  

Dump ship's entire track history